Time;durP1;ratioP1;P1;durP2;ratioP2;P2;SDS_P1;SDS_P2;PMS_P1;PMS_P2;Temp;Humidity;BMP_temperature;BMP_pressure;BME280_temperature;BME280_humidity;BME280_pressure;Samples;Min_cycle;Max_cycle;Signal;HPM_P1;HPM_P2
2021/03/24 00:00:45;;;;;;;151.75;72.80;;;;;;;;;;5006753;28;20029;-50
2021/03/24 00:03:12;;;;;;;31.58;16.50;;;;;;;;;;5013906;28;20026;-49
2021/03/24 00:05:40;;;;;;;24.95;14.00;;;;;;;;;;5013887;28;20029;-50
2021/03/24 00:08:07;;;;;;;51.63;26.92;;;;;;;;;;5013726;28;20112;-50
2021/03/24 00:10:33;;;;;;;27.60;15.20;;;;;;;;;;5013740;28;20486;-50
2021/03/24 00:13:00;;;;;;;51.80;26.50;;;;;;;;;;5013892;28;20046;-50
2021/03/24 00:15:26;;;;;;;37.03;19.33;;;;;;;;;;5013867;28;20386;-49
2021/03/24 00:17:53;;;;;;;35.28;16.67;;;;;;;;;;5013732;28;20029;-49
2021/03/24 00:20:21;;;;;;;46.22;23.17;;;;;;;;;;5013858;28;20030;-49
2021/03/24 00:22:47;;;;;;;78.05;37.50;;;;;;;;;;5013577;28;20036;-50
2021/03/24 00:25:16;;;;;;;33.55;17.08;;;;;;;;;;5013584;28;20413;-49
2021/03/24 00:27:45;;;;;;;96.45;42.78;;;;;;;;;;5013773;28;20037;-49
2021/03/24 00:30:12;;;;;;;41.95;22.45;;;;;;;;;;5013645;28;20026;-49
2021/03/24 00:32:38;;;;;;;23.92;13.48;;;;;;;;;;5013682;28;20042;-49
2021/03/24 00:35:05;;;;;;;33.28;17.15;;;;;;;;;;5013782;28;20026;-49
2021/03/24 00:37:31;;;;;;;25.08;13.38;;;;;;;;;;5013483;28;20045;-50
2021/03/24 00:39:57;;;;;;;24.58;13.80;;;;;;;;;;5013196;28;20022;-49
2021/03/24 00:42:23;;;;;;;29.25;16.77;;;;;;;;;;5013543;28;20026;-49
2021/03/24 00:44:50;;;;;;;25.60;12.85;;;;;;;;;;5013582;28;20115;-50
2021/03/24 00:47:16;;;;;;;68.97;35.95;;;;;;;;;;5017598;28;20026;-50
2021/03/24 00:49:42;;;;;;;30.42;16.55;;;;;;;;;;5017510;28;20025;-50
2021/03/24 00:52:08;;;;;;;43.65;21.23;;;;;;;;;;5017362;28;20029;-49
2021/03/24 00:54:34;;;;;;;21.10;11.43;;;;;;;;;;5017331;28;20030;-49
2021/03/24 00:57:00;;;;;;;52.92;25.58;;;;;;;;;;5017640;28;20084;-50
2021/03/24 00:59:29;;;;;;;89.25;44.25;;;;;;;;;;5017351;28;20080;-50
2021/03/24 01:01:55;;;;;;;18.40;10.75;;;;;;;;;;5017271;28;20014;-49
2021/03/24 01:04:21;;;;;;;49.90;24.05;;;;;;;;;;5017494;28;20080;-49
2021/03/24 01:06:51;;;;;;;70.70;34.10;;;;;;;;;;5017209;28;20068;-49
2021/03/24 01:09:17;;;;;;;41.85;20.65;;;;;;;;;;5017126;28;20022;-50
2021/03/24 01:11:43;;;;;;;47.65;25.63;;;;;;;;;;5016841;28;20057;-50
2021/03/24 01:14:10;;;;;;;35.85;19.58;;;;;;;;;;5031925;28;20042;-50
2021/03/24 01:16:37;;;;;;;23.58;13.43;;;;;;;;;;5017070;28;20080;-50
2021/03/24 01:19:03;;;;;;;83.18;40.22;;;;;;;;;;5017116;28;20040;-50
2021/03/24 01:21:29;;;;;;;35.85;18.48;;;;;;;;;;5016703;28;20018;-50
2021/03/24 01:23:55;;;;;;;66.22;31.17;;;;;;;;;;5016833;28;20033;-50
2021/03/24 01:26:23;;;;;;;31.35;17.65;;;;;;;;;;5016969;28;20419;-50
2021/03/24 01:28:57;;;;;;;29.40;15.70;;;;;;;;;;5016913;28;20026;-49
2021/03/24 01:31:25;;;;;;;76.50;35.95;;;;;;;;;;5016807;28;20471;-50
2021/03/24 01:33:51;;;;;;;34.30;17.55;;;;;;;;;;5016464;28;20061;-50
2021/03/24 01:36:17;;;;;;;36.65;18.63;;;;;;;;;;5016585;28;20022;-49
2021/03/24 01:38:43;;;;;;;40.90;23.20;;;;;;;;;;5016671;28;20493;-50
2021/03/24 01:41:09;;;;;;;44.15;24.48;;;;;;;;;;5016406;28;20474;-49
2021/03/24 01:43:36;;;;;;;22.05;13.10;;;;;;;;;;5016576;28;20026;-49
2021/03/24 01:46:24;;;;;;;22.35;12.93;;;;;;;;;;5016450;28;20157;-49
2021/03/24 01:48:59;;;;;;;42.28;22.80;;;;;;;;;;5016326;28;20458;-50
2021/03/24 01:51:27;;;;;;;26.70;15.07;;;;;;;;;;5016457;28;20084;-50
2021/03/24 01:53:54;;;;;;;47.75;24.20;;;;;;;;;;5016240;28;20508;-50
2021/03/24 01:56:20;;;;;;;25.77;13.88;;;;;;;;;;5015741;28;20025;-50
2021/03/24 01:58:47;;;;;;;24.50;14.98;;;;;;;;;;5015608;28;20068;-49
2021/03/24 02:01:15;;;;;;;28.42;17.55;;;;;;;;;;5016372;28;20022;-51
2021/03/24 02:03:42;;;;;;;63.10;30.33;;;;;;;;;;5015780;28;20026;-50
2021/03/24 02:06:15;;;;;;;34.75;19.80;;;;;;;;;;5016119;28;20119;-50
2021/03/24 02:08:42;;;;;;;28.85;15.00;;;;;;;;;;5016201;28;20026;-50
2021/03/24 02:11:15;;;;;;;39.55;22.10;;;;;;;;;;5015753;28;20161;-50
2021/03/24 02:13:44;;;;;;;51.15;26.33;;;;;;;;;;5015944;28;20046;-49
2021/03/24 02:16:20;;;;;;;34.83;19.27;;;;;;;;;;5015835;28;20105;-50
2021/03/24 02:18:47;;;;;;;70.68;36.25;;;;;;;;;;5015896;28;20113;-50
2021/03/24 02:21:22;;;;;;;36.15;20.08;;;;;;;;;;5016060;28;20459;-51
2021/03/24 02:23:57;;;;;;;55.90;30.00;;;;;;;;;;5015622;28;20036;-50
2021/03/24 02:26:26;;;;;;;57.30;27.13;;;;;;;;;;5015821;28;20057;-50
2021/03/24 02:28:52;;;;;;;35.85;21.05;;;;;;;;;;5015615;28;20018;-50
2021/03/24 02:31:21;;;;;;;29.27;16.40;;;;;;;;;;5015711;28;20030;-50
2021/03/24 02:33:48;;;;;;;23.13;15.15;;;;;;;;;;5015506;28;20129;-51
2021/03/24 02:36:16;;;;;;;31.75;18.77;;;;;;;;;;5015767;28;20490;-49
2021/03/24 02:38:44;;;;;;;33.30;18.85;;;;;;;;;;5015549;28;20030;-50
2021/03/24 02:41:10;;;;;;;48.60;25.65;;;;;;;;;;5015389;28;20037;-49
2021/03/24 02:43:37;;;;;;;55.65;30.85;;;;;;;;;;5015359;28;20034;-50
2021/03/24 02:46:05;;;;;;;49.08;27.38;;;;;;;;;;5015600;28;20124;-50
2021/03/24 02:48:33;;;;;;;30.10;17.75;;;;;;;;;;5015673;28;20435;-48
2021/03/24 02:51:03;;;;;;;39.33;21.83;;;;;;;;;;5015176;28;20022;-50
2021/03/24 02:53:31;;;;;;;51.45;27.98;;;;;;;;;;5015231;28;20038;-50
2021/03/24 02:55:59;;;;;;;51.53;28.27;;;;;;;;;;5015181;28;20060;-48
2021/03/24 02:58:25;;;;;;;32.75;16.27;;;;;;;;;;5015211;28;20033;-49
2021/03/24 03:00:52;;;;;;;25.73;15.55;;;;;;;;;;5015209;28;20026;-50
2021/03/24 03:03:22;;;;;;;33.97;17.77;;;;;;;;;;5015259;28;20026;-50
2021/03/24 03:05:48;;;;;;;27.55;16.95;;;;;;;;;;5030152;28;20029;-50
2021/03/24 03:08:20;;;;;;;39.83;21.95;;;;;;;;;;5014576;28;20026;-47
2021/03/24 03:10:53;;;;;;;39.47;21.52;;;;;;;;;;5014545;28;20081;-49
2021/03/24 03:13:22;;;;;;;43.70;22.65;;;;;;;;;;5014990;28;20034;-50
2021/03/24 03:15:59;;;;;;;28.33;16.30;;;;;;;;;;5014823;28;20022;-49
2021/03/24 03:18:29;;;;;;;34.03;19.25;;;;;;;;;;5015053;28;20030;-50
2021/03/24 03:20:58;;;;;;;33.08;18.75;;;;;;;;;;5014805;28;20026;-50
2021/03/24 03:23:27;;;;;;;36.13;21.48;;;;;;;;;;5014550;28;20026;-49
2021/03/24 03:25:56;;;;;;;44.88;24.67;;;;;;;;;;5014737;28;20108;-50
2021/03/24 03:28:23;;;;;;;26.90;15.40;;;;;;;;;;5014593;28;20026;-50
2021/03/24 03:30:50;;;;;;;38.20;23.30;;;;;;;;;;5014585;28;20152;-47
2021/03/24 03:33:19;;;;;;;29.25;17.23;;;;;;;;;;5014518;28;20034;-50
2021/03/24 03:35:45;;;;;;;32.55;19.27;;;;;;;;;;5014684;28;20540;-49
2021/03/24 03:38:17;;;;;;;48.67;25.42;;;;;;;;;;5014523;28;20032;-50
2021/03/24 03:40:45;;;;;;;39.78;21.65;;;;;;;;;;5014194;28;20351;-51
2021/03/24 03:43:12;;;;;;;25.80;15.10;;;;;;;;;;5014586;28;20034;-50
2021/03/24 03:45:39;;;;;;;31.88;18.10;;;;;;;;;;5014439;28;20018;-49
2021/03/24 03:48:06;;;;;;;63.75;32.15;;;;;;;;;;5014157;28;20033;-50
2021/03/24 03:50:32;;;;;;;34.22;18.83;;;;;;;;;;5014117;28;20065;-50
2021/03/24 03:53:09;;;;;;;28.50;17.35;;;;;;;;;;5014037;28;20072;-50
2021/03/24 03:55:40;;;;;;;30.80;18.38;;;;;;;;;;5014332;28;20382;-48
2021/03/24 03:58:06;;;;;;;;;;;;;;;;;;5014503;28;20033;-50
2021/03/24 04:00:35;;;;;;;26.38;15.85;;;;;;;;;;5014081;28;19906;-50
2021/03/24 04:03:20;;;;;;;32.08;18.70;;;;;;;;;;5014088;28;20018;-50
2021/03/24 04:05:55;;;;;;;44.08;24.65;;;;;;;;;;5013987;28;20030;-50
2021/03/24 04:08:23;;;;;;;38.80;22.52;;;;;;;;;;5014251;28;20029;-50
2021/03/24 04:10:57;;;;;;;42.83;24.15;;;;;;;;;;5013631;28;20072;-51
2021/03/24 04:13:25;;;;;;;42.45;23.45;;;;;;;;;;5013780;28;20402;-50
2021/03/24 04:15:52;;;;;;;63.35;36.13;;;;;;;;;;5014035;28;20028;-50
2021/03/24 04:18:25;;;;;;;71.22;37.20;;;;;;;;;;5014013;28;20022;-51
2021/03/24 04:20:52;;;;;;;62.40;34.97;;;;;;;;;;5013124;28;20030;-50
2021/03/24 04:23:21;;;;;;;48.22;26.80;;;;;;;;;;5013729;28;20050;-50
2021/03/24 04:26:01;;;;;;;35.75;22.17;;;;;;;;;;5013648;28;20034;-51
2021/03/24 04:28:29;;;;;;;39.97;23.63;;;;;;;;;;5013569;28;20022;-50
2021/03/24 04:30:57;;;;;;;48.85;27.90;;;;;;;;;;5013703;28;20037;-51
2021/03/24 04:33:23;;;;;;;35.50;20.90;;;;;;;;;;5013808;28;20390;-50
2021/03/24 04:35:50;;;;;;;35.97;22.13;;;;;;;;;;5013843;28;20509;-51
2021/03/24 04:38:35;;;;;;;35.45;21.48;;;;;;;;;;5013737;28;20026;-51
2021/03/24 04:41:04;;;;;;;30.25;18.00;;;;;;;;;;5013403;28;20129;-51
2021/03/24 04:43:31;;;;;;;30.95;18.05;;;;;;;;;;5013761;28;20029;-51
2021/03/24 04:45:57;;;;;;;32.47;20.17;;;;;;;;;;5013675;28;20022;-50
2021/03/24 04:48:32;;;;;;;31.88;19.65;;;;;;;;;;5013810;28;20022;-51
2021/03/24 04:51:00;;;;;;;34.63;20.30;;;;;;;;;;5013456;28;20032;-51
2021/03/24 04:53:29;;;;;;;30.27;18.45;;;;;;;;;;5013398;28;20041;-51
2021/03/24 04:55:56;;;;;;;30.58;18.50;;;;;;;;;;5013331;28;20025;-49
2021/03/24 04:58:31;;;;;;;32.15;18.17;;;;;;;;;;5013589;28;20351;-51
2021/03/24 05:01:04;;;;;;;29.02;17.58;;;;;;;;;;5013494;28;20030;-52
2021/03/24 05:03:32;;;;;;;27.95;16.88;;;;;;;;;;5028493;28;20105;-51
2021/03/24 05:06:00;;;;;;;29.52;16.88;;;;;;;;;;5013408;28;20060;-51
2021/03/24 05:08:26;;;;;;;26.60;16.77;;;;;;;;;;5013331;28;20096;-51
2021/03/24 05:10:56;;;;;;;25.55;16.75;;;;;;;;;;5012856;28;20054;-52
2021/03/24 05:13:34;;;;;;;27.30;16.85;;;;;;;;;;5013232;28;20040;-51
2021/03/24 05:16:06;;;;;;;31.83;17.55;;;;;;;;;;5013258;28;20037;-52
2021/03/24 05:18:32;;;;;;;27.00;16.40;;;;;;;;;;5013219;28;20037;-51
2021/03/24 05:21:21;;;;;;;29.55;17.48;;;;;;;;;;5013255;28;20049;-51
2021/03/24 05:23:48;;;;;;;29.35;18.23;;;;;;;;;;5013222;28;20092;-51
2021/03/24 05:26:27;;;;;;;31.30;19.05;;;;;;;;;;5013022;28;20037;-49
2021/03/24 05:28:54;;;;;;;31.77;18.15;;;;;;;;;;5013259;28;20390;-52
2021/03/24 05:31:20;;;;;;;32.38;17.92;;;;;;;;;;5013851;28;20029;-51
2021/03/24 05:33:48;;;;;;;30.83;18.13;;;;;;;;;;5016696;28;20038;-51
2021/03/24 05:36:14;;;;;;;31.55;18.40;;;;;;;;;;5016812;28;20041;-51
2021/03/24 05:38:40;;;;;;;32.75;17.92;;;;;;;;;;5016569;28;20030;-51
2021/03/24 05:41:25;;;;;;;28.70;17.77;;;;;;;;;;5016480;28;20069;-51
2021/03/24 05:44:04;;;;;;;30.77;18.45;;;;;;;;;;5016508;28;20119;-51
2021/03/24 05:46:45;;;;;;;28.63;18.42;;;;;;;;;;5016743;28;20022;-51
2021/03/24 05:49:14;;;;;;;32.47;19.58;;;;;;;;;;5016623;28;20026;-51
2021/03/24 05:51:58;;;;;;;33.70;20.70;;;;;;;;;;5016506;28;20049;-51
2021/03/24 05:54:29;;;;;;;29.42;19.88;;;;;;;;;;5016337;28;20030;-51
2021/03/24 05:57:12;;;;;;;31.67;17.77;;;;;;;;;;5031444;28;20101;-51
2021/03/24 05:59:46;;;;;;;49.80;25.63;;;;;;;;;;5016367;28;20112;-51
2021/03/24 06:02:16;;;;;;;32.25;18.48;;;;;;;;;;5016097;28;20022;-51
2021/03/24 06:04:42;;;;;;;29.73;17.25;;;;;;;;;;5016132;28;20032;-51
2021/03/24 06:07:26;;;;;;;34.40;20.15;;;;;;;;;;5016020;28;20030;-50
2021/03/24 06:09:53;;;;;;;32.92;16.73;;;;;;;;;;5016026;28;20108;-50
2021/03/24 06:12:21;;;;;;;26.17;14.85;;;;;;;;;;5015741;28;20050;-50
2021/03/24 06:14:47;;;;;;;32.38;16.75;;;;;;;;;;5015892;28;20407;-50
2021/03/24 06:17:32;;;;;;;20.33;11.82;;;;;;;;;;5015929;28;20467;-51
2021/03/24 06:20:01;;;;;;;21.05;12.18;;;;;;;;;;5015725;28;20021;-51
2021/03/24 06:22:27;;;;;;;27.15;16.10;;;;;;;;;;5015701;28;20022;-51
2021/03/24 06:25:06;;;;;;;40.38;20.55;;;;;;;;;;5015871;28;20029;-50
2021/03/24 06:27:58;;;;;;;54.90;27.33;;;;;;;;;;5015716;28;20018;-49
2021/03/24 06:30:25;;;;;;;40.45;22.35;;;;;;;;;;5015530;28;20037;-50
2021/03/24 06:33:09;;;;;;;77.32;36.85;;;;;;;;;;5015534;28;20088;-51
2021/03/24 06:35:42;;;;;;;81.10;41.63;;;;;;;;;;5015500;28;20026;-48
2021/03/24 06:38:20;;;;;;;59.30;31.15;;;;;;;;;;5015851;28;20069;-50
2021/03/24 06:41:02;;;;;;;56.08;30.77;;;;;;;;;;5015144;28;20053;-51
2021/03/24 06:43:28;;;;;;;66.70;33.85;;;;;;;;;;5014821;28;20037;-51
2021/03/24 06:46:06;;;;;;;51.08;29.52;;;;;;;;;;5015264;28;20061;-51
2021/03/24 06:48:39;;;;;;;54.17;30.10;;;;;;;;;;5015725;28;20474;-51
2021/03/24 06:51:23;;;;;;;53.42;29.75;;;;;;;;;;5015174;28;20040;-50
2021/03/24 06:54:08;;;;;;;50.72;29.80;;;;;;;;;;5015422;28;20038;-51
2021/03/24 06:57:03;;;;;;;92.30;46.80;;;;;;;;;;5015098;28;20037;-51
2021/03/24 06:59:30;;;;;;;63.35;33.78;;;;;;;;;;5015243;28;20026;-51
2021/03/24 07:02:09;;;;;;;67.93;36.30;;;;;;;;;;5014953;28;20022;-52
2021/03/24 07:05:04;;;;;;;51.55;28.73;;;;;;;;;;5015145;28;20370;-51
2021/03/24 07:07:51;;;;;;;51.08;26.85;;;;;;;;;;4993293;28;20035;-50
2021/03/24 07:10:34;;;;;;;46.22;26.65;;;;;;;;;;4992961;28;20034;-51
2021/03/24 07:13:03;;;;;;;42.95;26.50;;;;;;;;;;4993370;28;20042;-51
2021/03/24 07:15:29;;;;;;;38.00;23.33;;;;;;;;;;4993220;28;20038;-51
2021/03/24 07:18:01;;;;;;;43.40;24.65;;;;;;;;;;4993146;28;20048;-51
2021/03/24 07:20:45;;;;;;;41.50;25.23;;;;;;;;;;4993007;28;20105;-52
2021/03/24 07:23:30;;;;;;;47.22;28.63;;;;;;;;;;4993294;28;20041;-51
2021/03/24 07:26:01;;;;;;;55.05;30.65;;;;;;;;;;4992745;28;20034;-51
2021/03/24 07:28:27;;;;;;;;;;;;;;;;;;4977016;28;20394;-51
2021/03/24 07:31:08;;;;;;;67.85;37.05;;;;;;;;;;4993171;28;19996;-50
2021/03/24 07:34:09;;;;;;;38.30;23.52;;;;;;;;;;4993092;28;20066;-51
2021/03/24 07:36:41;;;;;;;42.22;25.23;;;;;;;;;;4935054;29;20040;-48
2021/03/24 07:39:26;;;;;;;36.08;22.85;;;;;;;;;;4934819;28;20547;-51
2021/03/24 07:42:10;;;;;;;52.38;29.95;;;;;;;;;;4934525;29;20505;-51
2021/03/24 07:44:39;;;;;;;54.65;29.98;;;;;;;;;;4949408;29;20035;-51
2021/03/24 07:47:16;;;;;;;52.45;28.20;;;;;;;;;;4953998;29;20130;-51
2021/03/24 07:50:01;;;;;;;63.75;34.38;;;;;;;;;;4953816;29;20054;-51
2021/03/24 07:52:45;;;;;;;45.38;25.65;;;;;;;;;;4953638;29;20194;-51
2021/03/24 07:55:14;;;;;;;36.00;23.27;;;;;;;;;;4954058;28;20039;-50
2021/03/24 07:57:46;;;;;;;32.92;21.92;;;;;;;;;;4953811;29;20023;-51
2021/03/24 08:00:16;;;;;;;29.55;18.65;;;;;;;;;;4953638;29;20451;-51
2021/03/24 08:02:49;;;;;;;33.00;20.60;;;;;;;;;;4953657;29;20443;-51
2021/03/24 08:05:33;;;;;;;36.40;22.27;;;;;;;;;;4953635;29;20106;-52
2021/03/24 08:08:19;;;;;;;31.67;20.40;;;;;;;;;;4953645;29;20030;-51
2021/03/24 08:10:57;;;;;;;34.17;19.27;;;;;;;;;;4953270;29;20127;-51
2021/03/24 08:13:40;;;;;;;38.05;21.17;;;;;;;;;;5013913;28;20549;-51
2021/03/24 08:16:23;;;;;;;33.38;20.63;;;;;;;;;;5013983;28;20030;-51
2021/03/24 08:19:13;;;;;;;28.67;19.80;;;;;;;;;;5013771;28;20026;-51
2021/03/24 08:21:48;;;;;;;33.45;21.75;;;;;;;;;;5013648;28;20097;-49
2021/03/24 08:24:28;;;;;;;39.60;25.23;;;;;;;;;;5013647;28;20076;-51
2021/03/24 08:26:58;;;;;;;40.45;25.23;;;;;;;;;;5013539;28;20034;-51
2021/03/24 08:29:33;;;;;;;39.08;23.98;;;;;;;;;;5013748;28;20041;-51
2021/03/24 08:32:02;;;;;;;42.88;26.70;;;;;;;;;;5013608;28;20520;-51
2021/03/24 08:34:49;;;;;;;40.17;24.67;;;;;;;;;;5013459;28;20045;-52
2021/03/24 08:37:41;;;;;;;38.78;23.27;;;;;;;;;;5013732;28;20319;-51
2021/03/24 08:40:27;;;;;;;44.30;26.38;;;;;;;;;;5004993;28;20030;-51
2021/03/24 08:42:53;;;;;;;49.90;27.60;;;;;;;;;;4991978;28;20043;-51
2021/03/24 08:45:37;;;;;;;38.85;26.38;;;;;;;;;;4991904;28;20050;-50
2021/03/24 08:48:06;;;;;;;44.00;25.83;;;;;;;;;;4991605;28;20039;-50
2021/03/24 08:50:36;;;;;;;60.78;32.97;;;;;;;;;;4991793;28;20098;-51
2021/03/24 08:53:11;;;;;;;46.10;26.83;;;;;;;;;;4991372;28;20066;-50
2021/03/24 08:55:44;;;;;;;47.28;28.63;;;;;;;;;;4991542;28;20038;-49
2021/03/24 08:58:22;;;;;;;79.00;42.67;;;;;;;;;;4991455;28;20023;-50
2021/03/24 09:00:55;;;;;;;81.85;43.28;;;;;;;;;;4975333;28;20137;-53
2021/03/24 09:03:34;;;;;;;63.03;36.53;;;;;;;;;;4991351;28;20526;-51
2021/03/24 09:06:18;;;;;;;72.82;40.45;;;;;;;;;;4991832;28;20430;-50
2021/03/24 09:08:50;;;;;;;75.13;40.47;;;;;;;;;;4995534;28;20030;-51
2021/03/24 09:11:16;;;;;;;;;;;;;;;;;;4995725;28;20047;-49
2021/03/24 09:14:07;;;;;;;87.93;43.75;;;;;;;;;;4994586;28;20008;-50
2021/03/24 09:16:48;;;;;;;52.53;28.10;;;;;;;;;;4985550;28;20491;-50
2021/03/24 09:19:17;;;;;;;108.40;55.58;;;;;;;;;;4995763;28;20042;-51
2021/03/24 09:21:46;;;;;;;170.73;77.43;;;;;;;;;;4997180;28;20041;-49
2021/03/24 09:24:21;;;;;;;57.05;32.67;;;;;;;;;;4997302;28;20030;-55
2021/03/24 09:27:17;;;;;;;69.45;38.72;;;;;;;;;;4996758;28;20394;-50
2021/03/24 09:29:52;;;;;;;56.67;32.08;;;;;;;;;;4997223;28;20179;-50
2021/03/24 09:32:25;;;;;;;64.57;37.92;;;;;;;;;;4997085;28;20117;-51
2021/03/24 09:34:51;;;;;;;56.55;30.60;;;;;;;;;;5000301;28;20476;-49
2021/03/24 09:37:19;;;;;;;53.35;31.90;;;;;;;;;;5016315;28;20100;-50
2021/03/24 09:39:53;;;;;;;74.30;41.28;;;;;;;;;;5016587;28;20057;-50
2021/03/24 09:42:29;;;;;;;67.68;40.55;;;;;;;;;;5015303;28;20034;-50
2021/03/24 09:45:05;;;;;;;54.40;33.40;;;;;;;;;;5016501;28;20033;-51
2021/03/24 09:47:31;;;;;;;106.15;55.45;;;;;;;;;;5015264;28;20437;-51
2021/03/24 09:50:09;;;;;;;61.47;36.08;;;;;;;;;;5016181;28;20026;-50
2021/03/24 09:52:50;;;;;;;80.68;44.67;;;;;;;;;;5015291;28;20048;-50
2021/03/24 09:55:20;;;;;;;80.78;44.42;;;;;;;;;;5016046;28;20116;-50
2021/03/24 09:58:04;;;;;;;98.90;48.03;;;;;;;;;;5015185;28;20501;-49
2021/03/24 10:00:32;;;;;;;82.55;43.25;;;;;;;;;;5016204;28;20045;-51
2021/03/24 10:03:03;;;;;;;93.95;47.85;;;;;;;;;;5016049;28;20028;-50
2021/03/24 10:05:50;;;;;;;71.78;38.80;;;;;;;;;;5015084;28;20025;-49
2021/03/24 10:08:26;;;;;;;105.28;53.83;;;;;;;;;;5015383;28;20034;-49
2021/03/24 10:10:53;;;;;;;72.60;34.85;;;;;;;;;;5015084;28;20168;-49
2021/03/24 10:13:24;;;;;;;54.67;25.00;;;;;;;;;;5015713;28;20049;-50
2021/03/24 10:15:54;;;;;;;69.15;31.52;;;;;;;;;;5015908;28;20478;-49
2021/03/24 10:18:23;;;;;;;62.38;25.98;;;;;;;;;;5013812;28;20378;-50
2021/03/24 10:20:56;;;;;;;80.00;33.85;;;;;;;;;;5015675;28;20076;-50
2021/03/24 10:23:44;;;;;;;82.32;35.63;;;;;;;;;;5015604;28;20466;-50
2021/03/24 10:26:29;;;;;;;46.33;22.38;;;;;;;;;;5005950;28;20100;-50
2021/03/24 10:29:07;;;;;;;80.03;40.33;;;;;;;;;;5015575;28;20057;-49
2021/03/24 10:31:38;;;;;;;32.30;18.00;;;;;;;;;;5015603;28;20394;-50
2021/03/24 10:34:13;;;;;;;54.63;25.23;;;;;;;;;;5015331;28;20042;-49
2021/03/24 10:36:42;;;;;;;65.50;34.97;;;;;;;;;;5015585;28;20062;-49
2021/03/24 10:39:28;;;;;;;49.53;26.65;;;;;;;;;;5015342;28;20109;-50
2021/03/24 10:41:57;;;;;;;44.40;24.73;;;;;;;;;;5015100;28;20028;-50
2021/03/24 10:44:42;;;;;;;37.47;20.48;;;;;;;;;;5015171;28;20021;-49
2021/03/24 10:47:20;;;;;;;31.23;17.77;;;;;;;;;;5015364;28;20026;-50
2021/03/24 10:49:59;;;;;;;41.60;22.38;;;;;;;;;;5015335;28;20041;-50
2021/03/24 10:52:27;;;;;;;70.95;35.22;;;;;;;;;;5015338;28;20030;-51
2021/03/24 10:55:04;;;;;;;41.92;19.38;;;;;;;;;;5015108;28;20517;-51
2021/03/24 10:57:49;;;;;;;40.65;21.30;;;;;;;;;;5015311;28;20018;-51
2021/03/24 11:00:18;;;;;;;40.00;19.33;;;;;;;;;;5015163;28;20030;-51
2021/03/24 11:03:05;;;;;;;40.38;20.55;;;;;;;;;;5015172;28;20022;-51
2021/03/24 11:05:34;;;;;;;26.38;14.77;;;;;;;;;;5014981;28;20097;-51
2021/03/24 11:08:00;;;;;;;31.17;16.23;;;;;;;;;;5015088;28;20022;-50
2021/03/24 11:10:29;;;;;;;29.17;11.10;;;;;;;;;;5014796;28;20076;-51
2021/03/24 11:13:03;;;;;;;20.75;11.30;;;;;;;;;;5014840;28;20450;-51
2021/03/24 11:15:35;;;;;;;41.85;18.73;;;;;;;;;;5014310;28;20097;-51
2021/03/24 11:18:07;;;;;;;25.02;12.02;;;;;;;;;;5014774;28;20026;-52
2021/03/24 11:20:42;;;;;;;28.88;13.70;;;;;;;;;;5014985;28;20022;-50
2021/03/24 11:23:10;;;;;;;27.02;12.60;;;;;;;;;;5015054;28;20521;-51
2021/03/24 11:25:51;;;;;;;56.08;25.80;;;;;;;;;;5014584;28;20548;-50
2021/03/24 11:28:20;;;;;;;28.83;13.77;;;;;;;;;;5014648;28;20101;-48
2021/03/24 11:30:48;;;;;;;57.55;28.17;;;;;;;;;;5014004;28;20026;-51
2021/03/24 11:33:17;;;;;;;63.30;32.28;;;;;;;;;;5014343;28;20084;-50
2021/03/24 11:35:45;;;;;;;77.50;37.42;;;;;;;;;;5014371;28;20052;-53
2021/03/24 11:38:26;;;;;;;87.80;42.03;;;;;;;;;;5014414;28;20030;-50
2021/03/24 11:40:55;;;;;;;41.90;19.40;;;;;;;;;;5014057;28;20022;-50
2021/03/24 11:43:23;;;;;;;44.20;21.23;;;;;;;;;;5013676;28;20117;-52
2021/03/24 11:45:52;;;;;;;20.65;9.93;;;;;;;;;;5014252;28;20021;-51
2021/03/24 11:48:23;;;;;;;27.05;15.02;;;;;;;;;;5014413;28;20026;-51
2021/03/24 11:50:55;;;;;;;77.43;37.55;;;;;;;;;;5014536;28;20466;-52
2021/03/24 11:53:40;;;;;;;81.03;37.15;;;;;;;;;;5014161;28;20041;-51
2021/03/24 11:56:16;;;;;;;31.77;16.30;;;;;;;;;;5014137;28;20033;-51
2021/03/24 11:58:56;;;;;;;92.32;45.65;;;;;;;;;;5014038;28;20112;-51
2021/03/24 12:01:25;;;;;;;30.73;17.30;;;;;;;;;;5012643;28;20084;-51
2021/03/24 12:03:59;;;;;;;20.80;10.63;;;;;;;;;;5013978;28;20033;-50
2021/03/24 12:06:46;;;;;;;32.33;15.88;;;;;;;;;;5013733;28;20054;-50
2021/03/24 12:09:15;;;;;;;30.77;14.68;;;;;;;;;;5013882;28;20026;-50
2021/03/24 12:11:43;;;;;;;56.97;27.52;;;;;;;;;;5013554;28;20085;-50
2021/03/24 12:14:14;;;;;;;34.20;17.25;;;;;;;;;;5013328;28;20038;-51
2021/03/24 12:16:42;;;;;;;35.63;17.80;;;;;;;;;;5013853;28;20030;-51
2021/03/24 12:19:23;;;;;;;40.28;20.17;;;;;;;;;;5013835;28;20441;-53
2021/03/24 12:21:53;;;;;;;29.88;12.75;;;;;;;;;;5012474;28;20058;-52
2021/03/24 12:24:27;;;;;;;32.83;15.13;;;;;;;;;;5010967;28;20064;-51
2021/03/24 12:26:54;;;;;;;73.95;37.38;;;;;;;;;;5001239;28;20029;-51
2021/03/24 12:29:20;;;;;;;104.72;51.33;;;;;;;;;;4999779;28;20025;-51
2021/03/24 12:31:48;;;;;;;66.25;32.30;;;;;;;;;;5003449;28;20038;-49
2021/03/24 12:34:16;;;;;;;42.08;23.70;;;;;;;;;;5001643;28;20077;-50
2021/03/24 12:37:02;;;;;;;114.93;57.88;;;;;;;;;;5001427;28;20076;-52
2021/03/24 12:39:32;;;;;;;64.43;32.42;;;;;;;;;;5001060;28;20103;-51
2021/03/24 12:42:30;;;;;;;105.38;48.67;;;;;;;;;;5000728;28;20030;-49
2021/03/24 12:44:59;;;;;;;118.50;68.78;;;;;;;;;;4960943;28;20461;-51
2021/03/24 12:47:37;;;;;;;40.33;23.20;;;;;;;;;;4961681;28;20034;-51
2021/03/24 12:50:09;;;;;;;127.25;71.47;;;;;;;;;;4962681;28;20596;-51
2021/03/24 12:52:36;;;;;;;64.28;34.90;;;;;;;;;;4960047;28;20069;-51
2021/03/24 12:55:02;;;;;;;41.17;22.02;;;;;;;;;;4960694;28;20058;-49
2021/03/24 12:57:35;;;;;;;32.58;15.80;;;;;;;;;;4963473;28;20031;-49
2021/03/24 13:00:36;;;;;;;22.88;13.50;;;;;;;;;;4963585;28;20141;-50
2021/03/24 13:03:05;;;;;;;19.80;11.63;;;;;;;;;;4934153;29;20408;-52
2021/03/24 13:05:39;;;;;;;34.33;17.92;;;;;;;;;;4932911;29;20046;-51
2021/03/24 13:08:08;;;;;;;24.70;10.80;;;;;;;;;;4934044;29;21084;-50
2021/03/24 13:10:55;;;;;;;17.83;9.98;;;;;;;;;;4933893;28;20067;-51
2021/03/24 13:13:30;;;;;;;20.52;10.75;;;;;;;;;;4932775;29;20066;-51
2021/03/24 13:16:00;;;;;;;22.73;9.80;;;;;;;;;;4933734;29;20047;-52
2021/03/24 13:18:59;;;;;;;12.10;6.90;;;;;;;;;;4923561;29;20088;-51
2021/03/24 13:21:37;;;;;;;19.70;10.68;;;;;;;;;;4870715;29;20116;-52
2021/03/24 13:24:26;;;;;;;22.50;11.80;;;;;;;;;;4865380;29;20051;-50
2021/03/24 13:26:56;;;;;;;21.38;9.30;;;;;;;;;;4865518;29;20555;-52
2021/03/24 13:29:22;;;;;;;18.88;9.95;;;;;;;;;;4864674;29;20560;-53
2021/03/24 13:32:07;;;;;;;14.48;8.43;;;;;;;;;;4864385;29;20100;-50
2021/03/24 13:34:48;;;;;;;23.85;13.45;;;;;;;;;;4864301;29;20246;-53
2021/03/24 13:37:14;;;;;;;;;;;;;;;;;;4883089;29;20126;-49
2021/03/24 13:40:03;;;;;;;14.38;8.10;;;;;;;;;;4896570;29;19966;-52
2021/03/24 13:42:38;;;;;;;14.45;7.90;;;;;;;;;;4896533;29;20580;-52
2021/03/24 13:45:04;;;;;;;20.65;10.98;;;;;;;;;;4896405;29;20044;-51
2021/03/24 13:47:33;;;;;;;110.03;55.60;;;;;;;;;;4896777;29;20032;-49
2021/03/24 13:50:03;;;;;;;117.50;62.10;;;;;;;;;;4896666;29;20819;-49
2021/03/24 13:52:29;;;;;;;53.47;25.73;;;;;;;;;;4897659;29;20366;-50
2021/03/24 13:55:14;;;;;;;58.90;30.02;;;;;;;;;;4898902;29;20512;-51
2021/03/24 13:57:59;;;;;;;21.88;11.25;;;;;;;;;;4979009;28;20041;-49
2021/03/24 14:00:31;;;;;;;71.63;36.67;;;;;;;;;;5006344;28;20029;-51
2021/03/24 14:03:16;;;;;;;38.03;17.45;;;;;;;;;;5007186;28;20024;-54
2021/03/24 14:06:07;;;;;;;38.50;17.00;;;;;;;;;;5008689;28;20394;-50
2021/03/24 14:08:48;;;;;;;86.10;42.20;;;;;;;;;;4943171;28;20482;-50
2021/03/24 14:11:22;;;;;;;153.13;72.45;;;;;;;;;;4942847;28;20051;-51
2021/03/24 14:13:48;;;;;;;25.13;14.43;;;;;;;;;;4943324;28;20066;-50
2021/03/24 14:16:17;;;;;;;14.63;7.43;;;;;;;;;;4943136;28;20035;-50
2021/03/24 14:18:43;;;;;;;54.55;31.33;;;;;;;;;;4944146;28;20038;-50
2021/03/24 14:21:17;;;;;;;43.10;21.40;;;;;;;;;;4944858;28;20701;-50
2021/03/24 14:23:52;;;;;;;30.30;13.70;;;;;;;;;;4944228;28;20046;-49
2021/03/24 14:26:18;;;;;;;40.67;20.63;;;;;;;;;;4942269;28;20344;-49
2021/03/24 14:28:59;;;;;;;26.70;14.60;;;;;;;;;;4942544;28;20031;-51
2021/03/24 14:31:38;;;;;;;26.83;13.52;;;;;;;;;;4942710;28;20031;-51
2021/03/24 14:34:10;;;;;;;14.85;8.05;;;;;;;;;;4942549;28;20759;-50
2021/03/24 14:36:51;;;;;;;17.65;9.57;;;;;;;;;;4943911;28;20187;-49
2021/03/24 14:39:21;;;;;;;18.33;11.02;;;;;;;;;;4942751;28;20105;-50
2021/03/24 14:41:56;;;;;;;24.05;13.50;;;;;;;;;;4942334;28;20038;-51
2021/03/24 14:44:34;;;;;;;27.08;13.27;;;;;;;;;;4943626;28;20758;-50
2021/03/24 14:47:15;;;;;;;18.90;10.98;;;;;;;;;;5003367;28;20022;-51
2021/03/24 14:49:47;;;;;;;18.65;10.18;;;;;;;;;;5003860;28;20025;-51
2021/03/24 14:52:27;;;;;;;20.13;10.43;;;;;;;;;;5003849;28;20029;-51